sensor_id;sensor_type;location;lat;lon;timestamp;P1;durP1;ratioP1;P2;durP2;ratioP2
11935;SDS011;6027;48.576;9.180;2024-01-15T00:01:41;19.70;;;10.77;;
11935;SDS011;6027;48.576;9.180;2024-01-15T00:04:10;16.13;;;9.77;;
11935;SDS011;6027;48.576;9.180;2024-01-15T00:06:35;19.77;;;11.07;;
11935;SDS011;6027;48.576;9.180;2024-01-15T00:09:01;18.20;;;10.63;;
11935;SDS011;6027;48.576;9.180;2024-01-15T00:11:27;18.03;;;10.10;;
11935;SDS011;6027;48.576;9.180;2024-01-15T00:13:52;16.80;;;9.90;;
11935;SDS011;6027;48.576;9.180;2024-01-15T00:16:18;17.47;;;10.43;;
11935;SDS011;6027;48.576;9.180;2024-01-15T00:18:43;17.20;;;10.20;;
11935;SDS011;6027;48.576;9.180;2024-01-15T00:21:09;19.93;;;10.57;;
11935;SDS011;6027;48.576;9.180;2024-01-15T00:23:34;18.03;;;10.33;;
11935;SDS011;6027;48.576;9.180;2024-01-15T00:26:00;20.93;;;10.30;;
11935;SDS011;6027;48.576;9.180;2024-01-15T00:28:26;19.97;;;11.37;;
11935;SDS011;6027;48.576;9.180;2024-01-15T00:30:51;17.20;;;9.93;;
11935;SDS011;6027;48.576;9.180;2024-01-15T00:33:16;21.17;;;11.03;;
11935;SDS011;6027;48.576;9.180;2024-01-15T00:35:42;20.37;;;10.57;;
11935;SDS011;6027;48.576;9.180;2024-01-15T00:38:07;19.27;;;10.37;;
11935;SDS011;6027;48.576;9.180;2024-01-15T00:40:33;19.97;;;10.60;;
11935;SDS011;6027;48.576;9.180;2024-01-15T00:42:58;15.93;;;9.43;;
11935;SDS011;6027;48.576;9.180;2024-01-15T00:45:23;17.57;;;10.20;;
11935;SDS011;6027;48.576;9.180;2024-01-15T00:47:49;16.57;;;9.97;;
11935;SDS011;6027;48.576;9.180;2024-01-15T00:50:14;17.73;;;10.40;;
11935;SDS011;6027;48.576;9.180;2024-01-15T00:52:40;16.37;;;9.47;;
11935;SDS011;6027;48.576;9.180;2024-01-15T00:55:05;21.27;;;10.80;;
11935;SDS011;6027;48.576;9.180;2024-01-15T00:57:31;18.23;;;10.20;;
11935;SDS011;6027;48.576;9.180;2024-01-15T00:59:57;18.47;;;10.03;;
11935;SDS011;6027;48.576;9.180;2024-01-15T01:02:23;18.50;;;11.07;;
11935;SDS011;6027;48.576;9.180;2024-01-15T01:04:48;17.80;;;11.17;;
11935;SDS011;6027;48.576;9.180;2024-01-15T01:07:14;17.23;;;10.80;;
11935;SDS011;6027;48.576;9.180;2024-01-15T01:09:39;18.57;;;11.63;;
11935;SDS011;6027;48.576;9.180;2024-01-15T01:12:04;22.27;;;12.63;;
11935;SDS011;6027;48.576;9.180;2024-01-15T01:14:30;16.90;;;10.90;;
11935;SDS011;6027;48.576;9.180;2024-01-15T01:16:56;18.10;;;10.93;;
11935;SDS011;6027;48.576;9.180;2024-01-15T01:19:22;17.80;;;10.37;;
11935;SDS011;6027;48.576;9.180;2024-01-15T01:21:47;19.07;;;10.40;;
11935;SDS011;6027;48.576;9.180;2024-01-15T01:24:13;17.20;;;10.03;;
11935;SDS011;6027;48.576;9.180;2024-01-15T01:26:38;18.03;;;9.90;;
11935;SDS011;6027;48.576;9.180;2024-01-15T01:29:03;19.33;;;11.53;;
11935;SDS011;6027;48.576;9.180;2024-01-15T01:31:29;19.23;;;10.60;;
11935;SDS011;6027;48.576;9.180;2024-01-15T01:33:54;19.33;;;11.00;;
11935;SDS011;6027;48.576;9.180;2024-01-15T01:36:19;17.43;;;11.40;;
11935;SDS011;6027;48.576;9.180;2024-01-15T01:38:45;17.70;;;10.27;;
11935;SDS011;6027;48.576;9.180;2024-01-15T01:41:10;19.43;;;10.77;;
11935;SDS011;6027;48.576;9.180;2024-01-15T01:43:36;16.77;;;10.53;;
11935;SDS011;6027;48.576;9.180;2024-01-15T01:46:01;17.17;;;10.50;;
11935;SDS011;6027;48.576;9.180;2024-01-15T01:48:28;17.77;;;10.90;;
11935;SDS011;6027;48.576;9.180;2024-01-15T01:50:58;18.47;;;10.90;;
11935;SDS011;6027;48.576;9.180;2024-01-15T01:53:26;17.80;;;10.30;;
11935;SDS011;6027;48.576;9.180;2024-01-15T01:55:52;18.47;;;10.83;;
11935;SDS011;6027;48.576;9.180;2024-01-15T01:58:19;19.90;;;10.27;;
11935;SDS011;6027;48.576;9.180;2024-01-15T02:00:45;17.77;;;10.10;;
11935;SDS011;6027;48.576;9.180;2024-01-15T02:03:12;17.93;;;10.47;;
11935;SDS011;6027;48.576;9.180;2024-01-15T02:05:38;17.20;;;9.97;;
11935;SDS011;6027;48.576;9.180;2024-01-15T02:08:04;18.63;;;10.20;;
11935;SDS011;6027;48.576;9.180;2024-01-15T02:10:30;16.63;;;9.90;;
11935;SDS011;6027;48.576;9.180;2024-01-15T02:12:55;17.13;;;10.17;;
11935;SDS011;6027;48.576;9.180;2024-01-15T02:15:21;18.83;;;10.65;;
11935;SDS011;6027;48.576;9.180;2024-01-15T02:18:05;17.83;;;11.00;;
11935;SDS011;6027;48.576;9.180;2024-01-15T02:20:35;18.03;;;11.30;;
11935;SDS011;6027;48.576;9.180;2024-01-15T02:23:08;17.63;;;10.80;;
11935;SDS011;6027;48.576;9.180;2024-01-15T02:25:36;16.80;;;9.97;;
11935;SDS011;6027;48.576;9.180;2024-01-15T02:28:03;16.67;;;9.90;;
11935;SDS011;6027;48.576;9.180;2024-01-15T02:30:30;17.13;;;9.87;;
11935;SDS011;6027;48.576;9.180;2024-01-15T02:32:56;19.37;;;10.73;;
11935;SDS011;6027;48.576;9.180;2024-01-15T02:35:21;16.33;;;9.50;;
11935;SDS011;6027;48.576;9.180;2024-01-15T02:37:47;13.57;;;8.60;;
11935;SDS011;6027;48.576;9.180;2024-01-15T02:40:12;18.87;;;10.10;;
11935;SDS011;6027;48.576;9.180;2024-01-15T02:42:37;16.20;;;10.13;;
11935;SDS011;6027;48.576;9.180;2024-01-15T02:45:03;17.93;;;9.80;;
11935;SDS011;6027;48.576;9.180;2024-01-15T02:47:29;15.03;;;8.90;;
11935;SDS011;6027;48.576;9.180;2024-01-15T02:49:54;16.77;;;9.57;;
11935;SDS011;6027;48.576;9.180;2024-01-15T02:52:20;15.27;;;9.23;;
11935;SDS011;6027;48.576;9.180;2024-01-15T02:54:45;18.93;;;9.20;;
11935;SDS011;6027;48.576;9.180;2024-01-15T02:57:10;17.43;;;9.37;;
11935;SDS011;6027;48.576;9.180;2024-01-15T02:59:36;14.93;;;9.47;;
11935;SDS011;6027;48.576;9.180;2024-01-15T03:02:01;16.53;;;8.63;;
11935;SDS011;6027;48.576;9.180;2024-01-15T03:04:26;17.47;;;9.03;;
11935;SDS011;6027;48.576;9.180;2024-01-15T03:06:52;15.87;;;8.53;;
11935;SDS011;6027;48.576;9.180;2024-01-15T03:09:17;17.60;;;9.53;;
11935;SDS011;6027;48.576;9.180;2024-01-15T03:11:42;17.87;;;10.33;;
11935;SDS011;6027;48.576;9.180;2024-01-15T03:14:08;16.90;;;9.23;;
11935;SDS011;6027;48.576;9.180;2024-01-15T03:16:33;15.47;;;9.47;;
11935;SDS011;6027;48.576;9.180;2024-01-15T03:18:59;17.50;;;8.83;;
11935;SDS011;6027;48.576;9.180;2024-01-15T03:21:24;15.33;;;9.40;;
11935;SDS011;6027;48.576;9.180;2024-01-15T03:23:49;16.37;;;9.83;;
11935;SDS011;6027;48.576;9.180;2024-01-15T03:26:15;14.50;;;8.70;;
11935;SDS011;6027;48.576;9.180;2024-01-15T03:28:40;15.33;;;9.00;;
11935;SDS011;6027;48.576;9.180;2024-01-15T03:31:05;16.83;;;9.23;;
11935;SDS011;6027;48.576;9.180;2024-01-15T03:33:32;16.37;;;8.93;;
11935;SDS011;6027;48.576;9.180;2024-01-15T03:35:58;19.00;;;10.07;;
11935;SDS011;6027;48.576;9.180;2024-01-15T03:38:23;16.93;;;9.57;;
11935;SDS011;6027;48.576;9.180;2024-01-15T03:40:49;17.03;;;9.30;;
11935;SDS011;6027;48.576;9.180;2024-01-15T03:43:14;16.33;;;9.17;;
11935;SDS011;6027;48.576;9.180;2024-01-15T03:45:40;19.33;;;10.07;;
11935;SDS011;6027;48.576;9.180;2024-01-15T03:48:05;17.23;;;9.13;;
11935;SDS011;6027;48.576;9.180;2024-01-15T03:50:31;16.87;;;9.43;;
11935;SDS011;6027;48.576;9.180;2024-01-15T03:52:56;17.93;;;9.43;;
11935;SDS011;6027;48.576;9.180;2024-01-15T03:55:21;17.80;;;9.50;;
11935;SDS011;6027;48.576;9.180;2024-01-15T03:57:47;18.17;;;9.83;;
11935;SDS011;6027;48.576;9.180;2024-01-15T04:00:13;16.47;;;8.63;;
11935;SDS011;6027;48.576;9.180;2024-01-15T04:02:40;16.47;;;9.50;;
11935;SDS011;6027;48.576;9.180;2024-01-15T04:05:05;18.80;;;9.80;;
11935;SDS011;6027;48.576;9.180;2024-01-15T04:07:30;20.10;;;10.03;;
11935;SDS011;6027;48.576;9.180;2024-01-15T04:09:56;17.63;;;9.33;;
11935;SDS011;6027;48.576;9.180;2024-01-15T04:12:21;18.87;;;10.33;;
11935;SDS011;6027;48.576;9.180;2024-01-15T04:14:47;19.10;;;10.27;;
11935;SDS011;6027;48.576;9.180;2024-01-15T04:17:12;19.63;;;10.60;;
11935;SDS011;6027;48.576;9.180;2024-01-15T04:19:37;16.93;;;9.67;;
11935;SDS011;6027;48.576;9.180;2024-01-15T04:22:03;18.57;;;10.63;;
11935;SDS011;6027;48.576;9.180;2024-01-15T04:24:28;17.67;;;10.60;;
11935;SDS011;6027;48.576;9.180;2024-01-15T04:26:56;19.37;;;11.13;;
11935;SDS011;6027;48.576;9.180;2024-01-15T04:29:22;20.53;;;11.07;;
11935;SDS011;6027;48.576;9.180;2024-01-15T04:31:47;18.13;;;10.47;;
11935;SDS011;6027;48.576;9.180;2024-01-15T04:34:12;17.57;;;10.67;;
11935;SDS011;6027;48.576;9.180;2024-01-15T04:36:38;17.00;;;10.40;;
11935;SDS011;6027;48.576;9.180;2024-01-15T04:39:05;17.67;;;10.20;;
11935;SDS011;6027;48.576;9.180;2024-01-15T04:41:31;19.50;;;11.67;;
11935;SDS011;6027;48.576;9.180;2024-01-15T04:43:56;17.43;;;10.67;;
11935;SDS011;6027;48.576;9.180;2024-01-15T04:46:21;21.70;;;11.37;;
11935;SDS011;6027;48.576;9.180;2024-01-15T04:48:47;20.83;;;11.27;;
11935;SDS011;6027;48.576;9.180;2024-01-15T04:51:12;19.70;;;11.13;;
11935;SDS011;6027;48.576;9.180;2024-01-15T04:53:38;20.90;;;12.13;;
11935;SDS011;6027;48.576;9.180;2024-01-15T04:56:03;21.73;;;11.57;;
11935;SDS011;6027;48.576;9.180;2024-01-15T04:58:29;19.80;;;11.43;;
11935;SDS011;6027;48.576;9.180;2024-01-15T05:00:54;21.83;;;11.73;;
11935;SDS011;6027;48.576;9.180;2024-01-15T05:03:20;21.30;;;12.10;;
11935;SDS011;6027;48.576;9.180;2024-01-15T05:05:45;18.13;;;10.83;;
11935;SDS011;6027;48.576;9.180;2024-01-15T05:08:11;20.80;;;12.07;;
11935;SDS011;6027;48.576;9.180;2024-01-15T05:10:37;19.33;;;11.70;;
11935;SDS011;6027;48.576;9.180;2024-01-15T05:13:02;19.33;;;11.40;;
11935;SDS011;6027;48.576;9.180;2024-01-15T05:15:28;18.97;;;11.30;;
11935;SDS011;6027;48.576;9.180;2024-01-15T05:17:53;18.70;;;11.17;;
11935;SDS011;6027;48.576;9.180;2024-01-15T05:20:18;20.13;;;11.77;;
11935;SDS011;6027;48.576;9.180;2024-01-15T05:22:44;20.13;;;11.37;;
11935;SDS011;6027;48.576;9.180;2024-01-15T05:25:09;20.10;;;11.80;;
11935;SDS011;6027;48.576;9.180;2024-01-15T05:27:34;19.67;;;11.43;;
11935;SDS011;6027;48.576;9.180;2024-01-15T05:30:00;18.70;;;11.17;;
11935;SDS011;6027;48.576;9.180;2024-01-15T05:32:25;19.90;;;12.00;;
11935;SDS011;6027;48.576;9.180;2024-01-15T05:34:51;18.73;;;11.97;;
11935;SDS011;6027;48.576;9.180;2024-01-15T05:37:16;19.40;;;12.10;;
11935;SDS011;6027;48.576;9.180;2024-01-15T05:39:41;19.20;;;12.00;;
11935;SDS011;6027;48.576;9.180;2024-01-15T05:42:07;19.70;;;12.40;;
11935;SDS011;6027;48.576;9.180;2024-01-15T05:44:32;19.47;;;13.00;;
11935;SDS011;6027;48.576;9.180;2024-01-15T05:46:57;22.13;;;13.57;;
11935;SDS011;6027;48.576;9.180;2024-01-15T05:49:23;22.57;;;13.90;;
11935;SDS011;6027;48.576;9.180;2024-01-15T05:51:48;19.37;;;12.50;;
11935;SDS011;6027;48.576;9.180;2024-01-15T05:54:14;17.47;;;11.80;;
11935;SDS011;6027;48.576;9.180;2024-01-15T05:56:39;18.80;;;11.63;;
11935;SDS011;6027;48.576;9.180;2024-01-15T05:59:05;21.23;;;12.93;;
11935;SDS011;6027;48.576;9.180;2024-01-15T06:01:30;21.47;;;13.10;;
11935;SDS011;6027;48.576;9.180;2024-01-15T06:03:55;18.47;;;12.20;;
11935;SDS011;6027;48.576;9.180;2024-01-15T06:06:21;22.33;;;13.73;;
11935;SDS011;6027;48.576;9.180;2024-01-15T06:08:47;18.93;;;12.37;;
11935;SDS011;6027;48.576;9.180;2024-01-15T06:11:13;19.03;;;12.03;;
11935;SDS011;6027;48.576;9.180;2024-01-15T06:13:38;18.17;;;11.43;;
11935;SDS011;6027;48.576;9.180;2024-01-15T06:16:11;18.73;;;11.87;;
11935;SDS011;6027;48.576;9.180;2024-01-15T06:18:38;20.13;;;12.20;;
11935;SDS011;6027;48.576;9.180;2024-01-15T06:21:03;19.53;;;11.80;;
11935;SDS011;6027;48.576;9.180;2024-01-15T06:23:30;28.93;;;17.50;;
11935;SDS011;6027;48.576;9.180;2024-01-15T06:25:55;22.00;;;12.73;;
11935;SDS011;6027;48.576;9.180;2024-01-15T06:28:21;19.40;;;12.67;;
11935;SDS011;6027;48.576;9.180;2024-01-15T06:30:46;16.93;;;10.50;;
11935;SDS011;6027;48.576;9.180;2024-01-15T06:33:12;18.97;;;11.50;;
11935;SDS011;6027;48.576;9.180;2024-01-15T06:35:37;17.20;;;11.23;;
11935;SDS011;6027;48.576;9.180;2024-01-15T06:38:03;16.53;;;10.97;;
11935;SDS011;6027;48.576;9.180;2024-01-15T06:40:28;22.70;;;13.43;;
11935;SDS011;6027;48.576;9.180;2024-01-15T06:42:53;17.33;;;11.10;;
11935;SDS011;6027;48.576;9.180;2024-01-15T06:45:19;20.80;;;11.67;;
11935;SDS011;6027;48.576;9.180;2024-01-15T06:47:44;17.43;;;11.33;;
11935;SDS011;6027;48.576;9.180;2024-01-15T06:50:09;16.93;;;10.50;;
11935;SDS011;6027;48.576;9.180;2024-01-15T06:52:35;17.77;;;11.63;;
11935;SDS011;6027;48.576;9.180;2024-01-15T06:55:00;17.10;;;11.57;;
11935;SDS011;6027;48.576;9.180;2024-01-15T06:57:26;17.47;;;10.53;;
11935;SDS011;6027;48.576;9.180;2024-01-15T06:59:51;15.47;;;10.47;;
11935;SDS011;6027;48.576;9.180;2024-01-15T07:02:17;16.00;;;10.50;;
11935;SDS011;6027;48.576;9.180;2024-01-15T07:04:42;17.50;;;11.20;;
11935;SDS011;6027;48.576;9.180;2024-01-15T07:07:08;16.70;;;10.83;;
11935;SDS011;6027;48.576;9.180;2024-01-15T07:09:36;15.20;;;10.43;;
11935;SDS011;6027;48.576;9.180;2024-01-15T07:12:01;15.50;;;9.77;;
11935;SDS011;6027;48.576;9.180;2024-01-15T07:14:27;17.27;;;11.07;;
11935;SDS011;6027;48.576;9.180;2024-01-15T07:16:52;15.77;;;10.60;;
11935;SDS011;6027;48.576;9.180;2024-01-15T07:19:18;18.37;;;10.70;;
11935;SDS011;6027;48.576;9.180;2024-01-15T07:21:43;16.23;;;10.33;;
11935;SDS011;6027;48.576;9.180;2024-01-15T07:24:08;17.23;;;10.40;;
11935;SDS011;6027;48.576;9.180;2024-01-15T07:26:36;17.73;;;12.30;;
11935;SDS011;6027;48.576;9.180;2024-01-15T07:29:01;16.30;;;11.00;;
11935;SDS011;6027;48.576;9.180;2024-01-15T07:31:28;18.67;;;10.93;;
11935;SDS011;6027;48.576;9.180;2024-01-15T07:33:53;16.33;;;10.80;;
11935;SDS011;6027;48.576;9.180;2024-01-15T07:36:19;14.63;;;10.10;;
11935;SDS011;6027;48.576;9.180;2024-01-15T07:38:44;16.90;;;10.80;;
11935;SDS011;6027;48.576;9.180;2024-01-15T07:41:10;15.90;;;9.60;;
11935;SDS011;6027;48.576;9.180;2024-01-15T07:43:35;15.30;;;10.13;;
11935;SDS011;6027;48.576;9.180;2024-01-15T07:46:00;14.40;;;9.77;;
11935;SDS011;6027;48.576;9.180;2024-01-15T07:48:27;14.60;;;8.97;;
11935;SDS011;6027;48.576;9.180;2024-01-15T07:50:52;13.43;;;9.33;;
11935;SDS011;6027;48.576;9.180;2024-01-15T07:53:18;16.17;;;10.33;;
11935;SDS011;6027;48.576;9.180;2024-01-15T07:55:43;12.70;;;8.70;;
11935;SDS011;6027;48.576;9.180;2024-01-15T07:58:11;13.07;;;9.27;;
11935;SDS011;6027;48.576;9.180;2024-01-15T08:00:36;12.50;;;8.33;;
11935;SDS011;6027;48.576;9.180;2024-01-15T08:03:02;12.37;;;9.07;;
11935;SDS011;6027;48.576;9.180;2024-01-15T08:05:28;12.70;;;8.77;;
11935;SDS011;6027;48.576;9.180;2024-01-15T08:07:53;12.07;;;8.13;;
11935;SDS011;6027;48.576;9.180;2024-01-15T08:10:18;12.80;;;8.63;;
11935;SDS011;6027;48.576;9.180;2024-01-15T08:12:44;14.63;;;9.70;;
11935;SDS011;6027;48.576;9.180;2024-01-15T08:15:09;12.23;;;8.17;;
11935;SDS011;6027;48.576;9.180;2024-01-15T08:17:35;12.90;;;8.33;;
11935;SDS011;6027;48.576;9.180;2024-01-15T08:20:00;12.47;;;8.23;;
11935;SDS011;6027;48.576;9.180;2024-01-15T08:22:26;12.93;;;8.57;;
11935;SDS011;6027;48.576;9.180;2024-01-15T08:24:52;10.33;;;7.93;;
11935;SDS011;6027;48.576;9.180;2024-01-15T08:27:18;10.77;;;8.27;;
11935;SDS011;6027;48.576;9.180;2024-01-15T08:29:45;11.10;;;7.87;;
11935;SDS011;6027;48.576;9.180;2024-01-15T08:32:10;9.97;;;7.67;;
11935;SDS011;6027;48.576;9.180;2024-01-15T08:34:39;11.03;;;7.87;;
11935;SDS011;6027;48.576;9.180;2024-01-15T08:37:04;11.87;;;8.03;;
11935;SDS011;6027;48.576;9.180;2024-01-15T08:39:30;9.67;;;7.53;;
11935;SDS011;6027;48.576;9.180;2024-01-15T08:41:55;11.97;;;7.93;;
11935;SDS011;6027;48.576;9.180;2024-01-15T08:44:20;11.77;;;7.17;;
11935;SDS011;6027;48.576;9.180;2024-01-15T08:46:46;9.80;;;7.07;;
11935;SDS011;6027;48.576;9.180;2024-01-15T08:49:11;9.37;;;7.47;;
11935;SDS011;6027;48.576;9.180;2024-01-15T08:51:36;9.53;;;7.07;;
11935;SDS011;6027;48.576;9.180;2024-01-15T08:54:03;9.20;;;6.90;;
11935;SDS011;6027;48.576;9.180;2024-01-15T08:56:28;8.73;;;6.03;;
11935;SDS011;6027;48.576;9.180;2024-01-15T08:58:54;8.50;;;6.23;;
11935;SDS011;6027;48.576;9.180;2024-01-15T09:01:19;11.03;;;6.40;;
11935;SDS011;6027;48.576;9.180;2024-01-15T09:03:44;7.40;;;5.43;;
11935;SDS011;6027;48.576;9.180;2024-01-15T09:06:11;7.97;;;5.67;;
11935;SDS011;6027;48.576;9.180;2024-01-15T09:08:40;7.60;;;5.40;;
11935;SDS011;6027;48.576;9.180;2024-01-15T09:11:05;8.10;;;5.20;;
11935;SDS011;6027;48.576;9.180;2024-01-15T09:13:31;7.50;;;4.93;;
11935;SDS011;6027;48.576;9.180;2024-01-15T09:15:56;8.17;;;5.77;;
11935;SDS011;6027;48.576;9.180;2024-01-15T09:18:22;8.87;;;4.97;;
11935;SDS011;6027;48.576;9.180;2024-01-15T09:20:47;8.13;;;6.27;;
11935;SDS011;6027;48.576;9.180;2024-01-15T09:23:12;6.47;;;4.87;;
11935;SDS011;6027;48.576;9.180;2024-01-15T09:25:38;8.77;;;5.23;;
11935;SDS011;6027;48.576;9.180;2024-01-15T09:28:03;11.67;;;5.47;;
11935;SDS011;6027;48.576;9.180;2024-01-15T09:30:29;9.03;;;5.50;;
11935;SDS011;6027;48.576;9.180;2024-01-15T09:32:54;9.73;;;5.83;;
11935;SDS011;6027;48.576;9.180;2024-01-15T09:35:20;8.00;;;5.53;;
11935;SDS011;6027;48.576;9.180;2024-01-15T09:37:45;17.87;;;9.97;;
11935;SDS011;6027;48.576;9.180;2024-01-15T09:40:14;7.73;;;5.03;;
11935;SDS011;6027;48.576;9.180;2024-01-15T09:42:40;8.10;;;5.17;;
11935;SDS011;6027;48.576;9.180;2024-01-15T09:45:07;5.83;;;4.57;;
11935;SDS011;6027;48.576;9.180;2024-01-15T09:47:34;7.37;;;5.27;;
11935;SDS011;6027;48.576;9.180;2024-01-15T09:50:00;8.17;;;5.37;;
11935;SDS011;6027;48.576;9.180;2024-01-15T09:52:28;8.83;;;5.27;;
11935;SDS011;6027;48.576;9.180;2024-01-15T09:54:55;8.23;;;4.50;;
11935;SDS011;6027;48.576;9.180;2024-01-15T09:57:23;5.57;;;3.87;;
11935;SDS011;6027;48.576;9.180;2024-01-15T09:59:48;6.43;;;4.30;;
11935;SDS011;6027;48.576;9.180;2024-01-15T10:02:14;4.93;;;3.80;;
11935;SDS011;6027;48.576;9.180;2024-01-15T10:04:43;7.60;;;4.10;;
11935;SDS011;6027;48.576;9.180;2024-01-15T10:07:09;4.77;;;3.73;;
11935;SDS011;6027;48.576;9.180;2024-01-15T10:09:38;5.70;;;3.30;;
11935;SDS011;6027;48.576;9.180;2024-01-15T10:12:04;6.13;;;3.50;;
11935;SDS011;6027;48.576;9.180;2024-01-15T10:14:30;4.43;;;3.53;;
11935;SDS011;6027;48.576;9.180;2024-01-15T10:16:55;4.70;;;3.23;;
11935;SDS011;6027;48.576;9.180;2024-01-15T10:19:20;5.17;;;2.80;;
11935;SDS011;6027;48.576;9.180;2024-01-15T10:21:47;8.13;;;4.30;;
11935;SDS011;6027;48.576;9.180;2024-01-15T10:24:14;4.73;;;3.07;;
11935;SDS011;6027;48.576;9.180;2024-01-15T10:26:39;4.80;;;3.23;;
11935;SDS011;6027;48.576;9.180;2024-01-15T10:29:04;5.00;;;3.30;;
11935;SDS011;6027;48.576;9.180;2024-01-15T10:31:30;5.77;;;3.10;;
11935;SDS011;6027;48.576;9.180;2024-01-15T10:34:02;3.73;;;2.70;;
11935;SDS011;6027;48.576;9.180;2024-01-15T10:36:35;4.87;;;2.70;;
11935;SDS011;6027;48.576;9.180;2024-01-15T10:39:03;5.50;;;3.00;;
11935;SDS011;6027;48.576;9.180;2024-01-15T10:41:29;4.10;;;2.73;;
11935;SDS011;6027;48.576;9.180;2024-01-15T10:43:54;3.80;;;2.67;;
11935;SDS011;6027;48.576;9.180;2024-01-15T10:46:20;3.33;;;2.60;;
11935;SDS011;6027;48.576;9.180;2024-01-15T10:48:45;4.33;;;2.73;;
11935;SDS011;6027;48.576;9.180;2024-01-15T10:51:11;4.10;;;2.80;;
11935;SDS011;6027;48.576;9.180;2024-01-15T10:53:38;5.60;;;2.70;;
11935;SDS011;6027;48.576;9.180;2024-01-15T10:56:07;4.37;;;2.83;;
11935;SDS011;6027;48.576;9.180;2024-01-15T10:58:36;3.17;;;2.63;;
11935;SDS011;6027;48.576;9.180;2024-01-15T11:01:03;3.43;;;2.83;;
11935;SDS011;6027;48.576;9.180;2024-01-15T11:03:29;2.97;;;2.57;;
11935;SDS011;6027;48.576;9.180;2024-01-15T11:05:55;3.93;;;2.70;;
11935;SDS011;6027;48.576;9.180;2024-01-15T11:08:20;5.33;;;3.10;;
11935;SDS011;6027;48.576;9.180;2024-01-15T11:10:52;3.57;;;2.87;;
11935;SDS011;6027;48.576;9.180;2024-01-15T11:16:06;5.97;;;2.93;;
11935;SDS011;6027;48.576;9.180;2024-01-15T11:18:37;6.80;;;3.27;;
11935;SDS011;6027;48.576;9.180;2024-01-15T11:23:42;3.53;;;2.90;;
11935;SDS011;6027;48.576;9.180;2024-01-15T11:26:26;4.63;;;3.30;;
11935;SDS011;6027;48.576;9.180;2024-01-15T11:29:08;3.87;;;3.20;;
11935;SDS011;6027;48.576;9.180;2024-01-15T11:31:58;3.97;;;3.20;;
11935;SDS011;6027;48.576;9.180;2024-01-15T11:37:22;4.50;;;3.47;;
11935;SDS011;6027;48.576;9.180;2024-01-15T11:39:50;4.40;;;3.40;;
11935;SDS011;6027;48.576;9.180;2024-01-15T11:42:16;4.83;;;3.87;;
11935;SDS011;6027;48.576;9.180;2024-01-15T11:44:44;3.97;;;3.13;;
11935;SDS011;6027;48.576;9.180;2024-01-15T11:47:10;4.43;;;3.73;;
11935;SDS011;6027;48.576;9.180;2024-01-15T11:52:23;5.07;;;4.10;;
11935;SDS011;6027;48.576;9.180;2024-01-15T11:57:40;5.30;;;3.77;;
11935;SDS011;6027;48.576;9.180;2024-01-15T12:00:14;5.13;;;4.07;;
11935;SDS011;6027;48.576;9.180;2024-01-15T12:02:44;8.17;;;4.03;;
11935;SDS011;6027;48.576;9.180;2024-01-15T12:05:12;4.60;;;3.93;;
11935;SDS011;6027;48.576;9.180;2024-01-15T12:07:39;6.47;;;4.60;;
11935;SDS011;6027;48.576;9.180;2024-01-15T12:10:11;6.90;;;4.17;;
11935;SDS011;6027;48.576;9.180;2024-01-15T12:12:59;5.03;;;4.10;;
11935;SDS011;6027;48.576;9.180;2024-01-15T12:15:29;7.77;;;4.30;;
11935;SDS011;6027;48.576;9.180;2024-01-15T12:17:55;6.70;;;4.80;;
11935;SDS011;6027;48.576;9.180;2024-01-15T12:20:23;4.90;;;4.13;;
11935;SDS011;6027;48.576;9.180;2024-01-15T12:22:49;7.43;;;4.80;;
11935;SDS011;6027;48.576;9.180;2024-01-15T12:25:15;5.40;;;4.83;;
11935;SDS011;6027;48.576;9.180;2024-01-15T12:27:43;13.47;;;10.57;;
11935;SDS011;6027;48.576;9.180;2024-01-15T12:30:12;7.37;;;5.97;;
11935;SDS011;6027;48.576;9.180;2024-01-15T12:32:39;7.80;;;6.37;;
11935;SDS011;6027;48.576;9.180;2024-01-15T12:35:06;6.57;;;5.00;;
11935;SDS011;6027;48.576;9.180;2024-01-15T12:37:31;7.43;;;5.33;;
11935;SDS011;6027;48.576;9.180;2024-01-15T12:39:58;12.87;;;6.23;;
11935;SDS011;6027;48.576;9.180;2024-01-15T12:42:24;7.70;;;5.20;;
11935;SDS011;6027;48.576;9.180;2024-01-15T12:44:50;7.83;;;5.27;;
11935;SDS011;6027;48.576;9.180;2024-01-15T12:47:15;7.80;;;5.83;;
11935;SDS011;6027;48.576;9.180;2024-01-15T12:49:46;8.67;;;5.47;;
11935;SDS011;6027;48.576;9.180;2024-01-15T12:52:14;6.47;;;5.33;;
11935;SDS011;6027;48.576;9.180;2024-01-15T12:54:39;6.73;;;5.20;;
11935;SDS011;6027;48.576;9.180;2024-01-15T12:57:05;7.27;;;5.50;;
11935;SDS011;6027;48.576;9.180;2024-01-15T12:59:30;7.17;;;5.40;;
11935;SDS011;6027;48.576;9.180;2024-01-15T13:01:55;7.20;;;6.40;;
11935;SDS011;6027;48.576;9.180;2024-01-15T13:04:24;6.93;;;5.97;;
11935;SDS011;6027;48.576;9.180;2024-01-15T13:06:50;10.30;;;7.03;;
11935;SDS011;6027;48.576;9.180;2024-01-15T13:09:16;10.47;;;6.73;;
11935;SDS011;6027;48.576;9.180;2024-01-15T13:11:42;10.07;;;6.67;;
11935;SDS011;6027;48.576;9.180;2024-01-15T13:14:11;8.77;;;6.67;;
11935;SDS011;6027;48.576;9.180;2024-01-15T13:16:41;9.27;;;7.27;;
11935;SDS011;6027;48.576;9.180;2024-01-15T13:19:10;11.07;;;7.67;;
11935;SDS011;6027;48.576;9.180;2024-01-15T13:21:39;11.57;;;7.97;;
11935;SDS011;6027;48.576;9.180;2024-01-15T13:24:05;10.83;;;6.70;;
11935;SDS011;6027;48.576;9.180;2024-01-15T13:26:31;10.30;;;7.23;;
11935;SDS011;6027;48.576;9.180;2024-01-15T13:28:59;9.00;;;7.00;;
11935;SDS011;6027;48.576;9.180;2024-01-15T13:31:31;10.73;;;8.00;;
11935;SDS011;6027;48.576;9.180;2024-01-15T13:33:57;10.33;;;7.33;;
11935;SDS011;6027;48.576;9.180;2024-01-15T13:36:23;11.93;;;7.53;;
11935;SDS011;6027;48.576;9.180;2024-01-15T13:38:52;11.00;;;7.97;;
11935;SDS011;6027;48.576;9.180;2024-01-15T13:41:19;11.03;;;8.00;;
11935;SDS011;6027;48.576;9.180;2024-01-15T13:43:48;13.07;;;8.00;;
11935;SDS011;6027;48.576;9.180;2024-01-15T13:46:15;14.50;;;9.93;;
11935;SDS011;6027;48.576;9.180;2024-01-15T13:48:42;11.80;;;8.97;;
11935;SDS011;6027;48.576;9.180;2024-01-15T13:51:07;14.47;;;10.10;;
11935;SDS011;6027;48.576;9.180;2024-01-15T13:53:33;16.83;;;10.43;;
11935;SDS011;6027;48.576;9.180;2024-01-15T13:55:59;11.27;;;8.70;;
11935;SDS011;6027;48.576;9.180;2024-01-15T13:58:24;12.87;;;9.87;;
11935;SDS011;6027;48.576;9.180;2024-01-15T14:00:50;13.67;;;9.27;;
11935;SDS011;6027;48.576;9.180;2024-01-15T14:03:17;13.67;;;10.67;;
11935;SDS011;6027;48.576;9.180;2024-01-15T14:05:42;12.57;;;10.40;;
11935;SDS011;6027;48.576;9.180;2024-01-15T14:08:08;13.23;;;9.67;;
11935;SDS011;6027;48.576;9.180;2024-01-15T14:10:33;15.60;;;10.47;;
11935;SDS011;6027;48.576;9.180;2024-01-15T14:12:59;14.03;;;9.97;;
11935;SDS011;6027;48.576;9.180;2024-01-15T14:15:24;13.30;;;9.47;;
11935;SDS011;6027;48.576;9.180;2024-01-15T14:17:49;16.50;;;10.17;;
11935;SDS011;6027;48.576;9.180;2024-01-15T14:20:15;18.10;;;10.87;;
11935;SDS011;6027;48.576;9.180;2024-01-15T14:22:40;15.83;;;9.73;;
11935;SDS011;6027;48.576;9.180;2024-01-15T14:25:06;17.83;;;11.97;;
11935;SDS011;6027;48.576;9.180;2024-01-15T14:27:32;16.43;;;11.00;;
11935;SDS011;6027;48.576;9.180;2024-01-15T14:29:58;15.30;;;10.30;;
11935;SDS011;6027;48.576;9.180;2024-01-15T14:32:23;14.50;;;9.73;;
11935;SDS011;6027;48.576;9.180;2024-01-15T14:34:49;14.97;;;10.17;;
11935;SDS011;6027;48.576;9.180;2024-01-15T14:37:14;13.30;;;8.77;;
11935;SDS011;6027;48.576;9.180;2024-01-15T14:39:40;15.10;;;10.07;;
11935;SDS011;6027;48.576;9.180;2024-01-15T14:42:05;16.37;;;10.17;;
11935;SDS011;6027;48.576;9.180;2024-01-15T14:44:32;15.77;;;10.20;;
11935;SDS011;6027;48.576;9.180;2024-01-15T14:47:00;13.17;;;8.90;;
11935;SDS011;6027;48.576;9.180;2024-01-15T14:49:25;14.03;;;9.60;;
11935;SDS011;6027;48.576;9.180;2024-01-15T14:51:51;13.53;;;9.50;;
11935;SDS011;6027;48.576;9.180;2024-01-15T14:54:16;13.90;;;10.23;;